Time;durP1;ratioP1;P1;durP2;ratioP2;P2;SDS_P1;SDS_P2;PMS_P1;PMS_P2;Temp;Humidity;BMP_temperature;BMP_pressure;BME280_temperature;BME280_humidity;BME280_pressure;Samples;Min_cycle;Max_cycle;Signal;HPM_P1;HPM_P2
2022/11/21 00:01:14;;;;;;;1.47;1.27;;;9.80;82.10;;;-142.21;100.00;112049.66;5070958;28;20446;-77
2022/11/21 00:03:41;;;;;;;1.77;1.40;;;9.70;82.30;;;-142.21;100.00;112049.66;5055460;28;20440;-76
2022/11/21 00:06:09;;;;;;;1.90;1.30;;;9.70;82.30;;;-142.21;100.00;112049.66;5051966;28;20797;-78
2022/11/21 00:08:36;;;;;;;1.10;1.00;;;9.70;82.20;;;-142.21;100.00;112049.66;5052071;28;20444;-77
2022/11/21 00:11:03;;;;;;;1.70;1.40;;;9.80;82.30;;;-142.21;100.00;112049.66;5052264;28;20466;-77
2022/11/21 00:13:35;;;;;;;2.67;1.40;;;9.80;82.60;;;-142.21;100.00;112049.66;5071776;28;20443;-78
2022/11/21 00:16:07;;;;;;;1.30;1.17;;;9.80;82.50;;;-142.21;100.00;112049.66;5063966;28;20527;-77
2022/11/21 00:18:35;;;;;;;1.40;1.10;;;9.80;82.30;;;-142.21;100.00;112049.66;5052160;28;20507;-78
2022/11/21 00:21:07;;;;;;;2.70;1.27;;;9.80;82.30;;;-142.21;100.00;112049.66;5050244;28;20523;-78
2022/11/21 00:23:35;;;;;;;1.70;1.47;;;9.80;82.60;;;-142.21;100.00;112049.66;5052166;28;20803;-76
2022/11/21 00:26:05;;;;;;;2.77;1.30;;;9.80;82.70;;;-142.21;100.00;112049.66;5055800;28;20431;-76
2022/11/21 00:28:34;;;;;;;3.67;1.90;;;9.70;83.10;;;-142.21;100.00;112049.66;5054212;28;20447;-78
2022/11/21 00:31:02;;;;;;;1.67;1.37;;;9.70;83.30;;;-142.21;100.00;112049.66;5055771;28;20444;-75
2022/11/21 00:33:29;;;;;;;2.17;1.10;;;9.60;83.60;;;-142.21;100.00;112049.66;5055176;28;20539;-77
2022/11/21 00:35:56;;;;;;;2.90;1.33;;;9.70;84.10;;;-142.21;100.00;112049.66;5055293;28;20495;-77
2022/11/21 00:38:24;;;;;;;1.40;1.30;;;9.80;83.90;;;-142.21;100.00;112049.66;5054600;28;20483;-78
2022/11/21 00:40:51;;;;;;;3.77;1.80;;;9.80;84.00;;;-142.21;100.00;112049.66;5054334;28;20444;-78
2022/11/21 00:43:18;;;;;;;2.13;1.50;;;9.80;84.60;;;-142.21;100.00;112049.66;5054743;28;20536;-77
2022/11/21 00:45:46;;;;;;;2.60;1.70;;;9.90;84.40;;;-142.21;100.00;112049.66;5055373;28;20454;-77
2022/11/21 00:48:16;;;;;;;3.50;1.80;;;9.70;84.40;;;-142.21;100.00;112049.66;5054394;28;20444;-76
2022/11/21 00:50:43;;;;;;;2.37;1.43;;;9.70;84.60;;;-142.21;100.00;112049.66;5053740;28;20527;-77
2022/11/21 00:53:10;;;;;;;1.97;1.53;;;9.70;85.00;;;-142.21;100.00;112049.66;5054634;28;20450;-77
2022/11/21 00:55:38;;;;;;;2.30;1.40;;;9.80;85.40;;;-142.21;100.00;112049.66;5055232;28;20527;-76
2022/11/21 00:58:05;;;;;;;2.37;1.40;;;9.80;85.80;;;-142.21;100.00;112049.66;5054295;28;20491;-75
2022/11/21 01:00:32;;;;;;;2.60;1.53;;;9.80;85.90;;;-142.21;100.00;112049.66;5057487;28;20459;-78
2022/11/21 01:03:01;;;;;;;1.60;1.50;;;9.80;85.90;;;-142.21;100.00;112049.66;5073709;28;20981;-78
2022/11/21 01:05:31;;;;;;;3.00;1.50;;;9.80;85.80;;;-142.21;100.00;112049.66;5068249;28;20443;-78
2022/11/21 01:07:58;;;;;;;2.93;1.60;;;9.80;85.70;;;-142.21;100.00;112049.66;5074850;28;20432;-78
2022/11/21 01:10:25;;;;;;;3.37;1.90;;;9.90;85.40;;;-142.21;100.00;112049.66;5054667;28;20452;-79
2022/11/21 01:12:52;;;;;;;3.70;1.60;;;10.00;84.30;;;-142.21;100.00;112049.66;5054534;28;20811;-79
2022/11/21 01:15:19;;;;;;;1.43;1.30;;;10.00;84.50;;;-142.21;100.00;112049.66;5054211;28;20444;-78
2022/11/21 01:17:46;;;;;;;1.87;1.27;;;10.00;84.20;;;-142.21;100.00;112049.66;5054486;28;20590;-80
2022/11/21 01:20:15;;;;;;;2.40;1.40;;;10.10;84.50;;;-142.21;100.00;112049.66;5053718;28;20924;-77
2022/11/21 01:22:42;;;;;;;2.53;1.40;;;10.00;84.00;;;-142.21;100.00;112049.66;5054500;28;20798;-77
2022/11/21 01:25:10;;;;;;;1.40;1.30;;;10.00;83.90;;;-142.21;100.00;112049.66;5071990;28;21085;-78
2022/11/21 01:27:37;;;;;;;1.47;1.20;;;10.00;84.40;;;-142.21;100.00;112049.66;5074270;28;20444;-76
2022/11/21 01:30:05;;;;;;;1.37;1.07;;;10.00;84.30;;;-142.21;100.00;112049.66;5074587;28;20573;-76
2022/11/21 01:32:32;;;;;;;2.13;1.50;;;10.00;84.70;;;-142.21;100.00;112049.66;5074667;28;20459;-78
2022/11/21 01:34:59;;;;;;;3.80;1.60;;;10.00;84.80;;;-142.21;100.00;112049.66;5073133;28;20486;-76
2022/11/21 01:37:28;;;;;;;3.17;1.50;;;10.00;84.90;;;-142.21;100.00;112049.66;5073548;28;20497;-77
2022/11/21 01:39:55;;;;;;;1.40;1.30;;;10.10;85.40;;;-142.21;100.00;112049.66;5074197;28;20447;-76
2022/11/21 01:42:23;;;;;;;1.47;1.00;;;10.20;84.60;;;-142.21;100.00;112049.66;5073091;28;20927;-76
2022/11/21 01:44:53;;;;;;;3.73;1.23;;;10.10;84.50;;;-142.21;100.00;112049.66;5073741;28;20497;-77
2022/11/21 01:47:21;;;;;;;4.83;1.70;;;10.10;84.50;;;-142.21;100.00;112049.66;5073919;28;20432;-77
2022/11/21 01:49:51;;;;;;;2.13;1.50;;;10.10;84.60;;;-142.21;100.00;112049.66;5073771;28;20454;-77
2022/11/21 01:52:24;;;;;;;1.80;1.33;;;10.10;84.80;;;-142.21;100.00;112049.66;5073293;28;20443;-77
2022/11/21 01:54:59;;;;;;;3.13;1.40;;;10.10;84.70;;;-142.21;100.00;112049.66;5074015;28;20438;-76
2022/11/21 01:57:32;;;;;;;3.57;1.80;;;10.10;84.70;;;-142.21;100.00;112049.66;5073186;28;20531;-76
2022/11/21 02:00:08;;;;;;;3.67;1.50;;;10.10;84.80;;;-142.21;100.00;112049.66;5073966;28;20438;-76
2022/11/21 02:02:40;;;;;;;2.47;1.50;;;10.00;84.90;;;-142.21;100.00;112049.66;5072699;28;20458;-76
2022/11/21 02:05:13;;;;;;;2.33;1.37;;;10.10;85.40;;;-142.21;100.00;112049.66;5073291;28;20831;-76
2022/11/21 02:07:46;;;;;;;3.73;1.63;;;10.10;84.80;;;-142.21;100.00;112049.66;5073839;28;20442;-77
2022/11/21 02:10:16;;;;;;;1.83;1.30;;;10.10;85.00;;;-142.21;100.00;112049.66;5073143;28;20518;-79
2022/11/21 02:12:50;;;;;;;5.23;1.60;;;10.10;85.00;;;-142.21;100.00;112049.66;5071954;28;20957;-76
2022/11/21 02:15:19;;;;;;;3.00;1.47;;;10.00;85.00;;;-142.21;100.00;112049.66;5057958;28;20440;-77
2022/11/21 02:17:47;;;;;;;1.97;1.33;;;10.00;85.40;;;-142.21;100.00;112049.66;5064541;28;20482;-77
2022/11/21 02:20:17;;;;;;;3.60;1.40;;;10.10;85.10;;;-142.21;100.00;112049.66;5055864;28;20448;-77
2022/11/21 02:22:54;;;;;;;2.23;1.30;;;10.00;85.00;;;-142.21;100.00;112049.66;5061405;28;20467;-79
2022/11/21 02:25:28;;;;;;;1.87;1.43;;;10.00;85.00;;;-142.21;100.00;112049.66;5060324;28;20472;-78
2022/11/21 02:28:01;;;;;;;1.30;1.20;;;9.90;86.40;;;-142.21;100.00;112049.66;5056072;28;20429;-78
2022/11/21 02:30:30;;;;;;;1.93;1.17;;;10.00;85.40;;;-142.21;100.00;112049.66;5047098;28;20451;-79
2022/11/21 02:32:59;;;;;;;1.47;1.13;;;10.00;84.70;;;-142.21;100.00;112049.66;5056973;28;20456;-77
2022/11/21 02:35:26;;;;;;;3.57;0.93;;;9.90;85.60;;;-142.21;100.00;112049.66;5065292;28;20803;-78
2022/11/21 02:38:01;;;;;;;1.90;1.17;;;10.00;84.40;;;-142.21;100.00;112049.66;5051475;28;20527;-78
2022/11/21 02:40:36;;;;;;;1.30;0.97;;;10.00;83.60;;;-142.21;100.00;112049.66;5070633;28;20530;-76
2022/11/21 02:43:12;;;;;;;1.93;1.10;;;10.00;83.50;;;-142.21;100.00;112049.66;5071988;28;20434;-77
2022/11/21 02:45:42;;;;;;;0.73;0.70;;;9.90;84.90;;;-142.21;100.00;112049.66;5062107;28;20447;-76
2022/11/21 02:48:09;;;;;;;1.17;0.90;;;10.00;83.60;;;-142.21;100.00;112049.66;5070584;28;21015;-77
2022/11/21 02:50:39;;;;;;;1.20;0.90;;;10.10;83.20;;;-142.21;100.00;112049.66;5071775;28;20458;-77
2022/11/21 02:53:12;;;;;;;1.90;0.97;;;10.10;83.00;;;-142.21;100.00;112049.66;5071202;28;20443;-76
2022/11/21 02:55:41;;;;;;;2.10;0.87;;;10.10;83.10;;;-142.21;100.00;112049.66;5071633;28;20874;-77
2022/11/21 02:58:08;;;;;;;2.20;1.10;;;10.20;83.10;;;-142.21;100.00;112049.66;5071687;28;20487;-77
2022/11/21 03:00:38;;;;;;;1.70;1.03;;;10.30;82.70;;;-142.21;100.00;112049.66;5071719;28;20446;-77
2022/11/21 03:03:05;;;;;;;3.20;1.10;;;10.20;82.60;;;-142.21;100.00;112049.66;5071001;28;20455;-77
2022/11/21 03:05:33;;;;;;;1.13;0.60;;;10.20;83.00;;;-142.21;100.00;112049.66;5069920;28;20444;-77
2022/11/21 03:08:00;;;;;;;2.93;1.30;;;10.30;82.90;;;-142.21;100.00;112049.66;5071521;28;20443;-78
2022/11/21 03:10:27;;;;;;;1.63;1.20;;;10.30;82.90;;;-142.21;100.00;112049.66;5071154;28;20806;-73
2022/11/21 03:13:00;;;;;;;2.60;1.10;;;10.20;83.00;;;-142.21;100.00;112049.66;5071203;28;20447;-74
2022/11/21 03:15:30;;;;;;;2.23;1.40;;;10.20;83.60;;;-142.21;100.00;112049.66;5070639;28;20926;-77
2022/11/21 03:17:59;;;;;;;2.20;1.10;;;10.10;83.50;;;-142.21;100.00;112049.66;5068120;28;20487;-79
2022/11/21 03:20:27;;;;;;;3.63;1.60;;;10.10;83.80;;;-142.21;100.00;112049.66;5060382;28;20459;-80
2022/11/21 03:22:54;;;;;;;1.77;1.20;;;10.10;83.80;;;-142.21;100.00;112049.66;5066873;28;20799;-78
2022/11/21 03:25:21;;;;;;;3.23;1.40;;;10.00;84.20;;;-142.21;100.00;112049.66;5058609;28;20475;-75
2022/11/21 03:27:52;;;;;;;2.13;1.30;;;9.90;85.40;;;-142.21;100.00;112049.66;5056295;28;20444;-79
2022/11/21 03:30:23;;;;;;;1.00;1.00;;;9.90;85.50;;;-142.21;100.00;112049.66;5052958;28;20444;-79
2022/11/21 03:32:50;;;;;;;2.93;1.53;;;9.90;85.80;;;-142.21;100.00;112049.66;5063213;28;20457;-80
2022/11/21 03:35:18;;;;;;;2.53;1.63;;;9.90;85.70;;;-142.21;100.00;112049.66;5060804;28;20450;-78
2022/11/21 03:37:46;;;;;;;2.30;1.00;;;9.80;85.00;;;-142.21;100.00;112049.66;5053663;28;20494;-79
2022/11/21 03:40:14;;;;;;;2.00;1.40;;;9.80;86.00;;;-142.21;100.00;112049.66;5068951;28;20448;-78
2022/11/21 03:42:41;;;;;;;1.40;1.30;;;9.90;84.50;;;-142.21;100.00;112049.66;5071246;28;20457;-79
2022/11/21 03:45:09;;;;;;;1.90;1.27;;;10.00;83.70;;;-142.21;100.00;112049.66;5061824;28;20459;-79
2022/11/21 03:47:38;;;;;;;1.90;1.00;;;10.00;83.60;;;-142.21;100.00;112049.66;5053814;28;20456;-79
2022/11/21 03:50:06;;;;;;;1.40;0.97;;;10.10;83.30;;;-142.21;100.00;112049.66;5064429;28;20447;-79
2022/11/21 03:52:33;;;;;;;1.53;1.40;;;10.00;83.20;;;-142.21;100.00;112049.66;5052569;28;20498;-79
2022/11/21 03:55:00;;;;;;;1.50;1.17;;;10.10;83.90;;;-142.21;100.00;112049.66;5059916;28;20455;-79
2022/11/21 03:57:27;;;;;;;1.43;1.20;;;10.00;83.90;;;-142.21;100.00;112049.66;5060678;28;20449;-78
2022/11/21 03:59:54;;;;;;;2.13;1.17;;;10.00;84.20;;;-142.21;100.00;112049.66;5058616;28;20525;-78
2022/11/21 04:02:21;;;;;;;2.70;1.60;;;10.10;84.20;;;-142.21;100.00;112049.66;5054564;28;20455;-79
2022/11/21 04:04:50;;;;;;;3.20;1.70;;;10.10;84.10;;;-142.21;100.00;112049.66;5060088;28;20872;-79
2022/11/21 04:07:17;;;;;;;4.47;1.40;;;10.20;84.20;;;-142.21;100.00;112049.66;5059075;28;20449;-79
2022/11/21 04:09:44;;;;;;;2.40;1.60;;;10.20;83.90;;;-142.21;100.00;112049.66;5070570;28;20439;-76
2022/11/21 04:12:11;;;;;;;4.67;1.70;;;10.20;83.90;;;-142.21;100.00;112049.66;5071618;28;20457;-77
2022/11/21 04:14:38;;;;;;;4.13;1.70;;;10.20;83.80;;;-142.21;100.00;112049.66;5070424;28;20450;-75
2022/11/21 04:17:07;;;;;;;3.50;1.50;;;10.20;83.60;;;-142.21;100.00;112049.66;5069215;28;20454;-78
2022/11/21 04:19:35;;;;;;;3.50;1.50;;;10.20;83.60;;;-142.21;100.00;112049.66;5073279;28;20584;-77
2022/11/21 04:22:03;;;;;;;3.67;1.40;;;10.20;83.80;;;-142.21;100.00;112049.66;5057031;28;20474;-77
2022/11/21 04:24:30;;;;;;;2.93;1.50;;;10.20;83.90;;;-142.21;100.00;112049.66;5053262;28;20493;-77
2022/11/21 04:26:58;;;;;;;3.87;1.63;;;10.30;83.80;;;-142.21;100.00;112049.66;5065657;28;20544;-78
2022/11/21 04:29:25;;;;;;;2.57;1.77;;;10.20;83.70;;;-142.21;100.00;112049.66;5066426;28;20823;-78
2022/11/21 04:31:52;;;;;;;2.93;1.50;;;10.30;83.80;;;-142.21;100.00;112049.66;5071709;28;20462;-76
2022/11/21 04:34:19;;;;;;;2.70;1.20;;;10.30;83.50;;;-142.21;100.00;112049.66;5063110;28;20535;-77
2022/11/21 04:36:46;;;;;;;3.73;1.40;;;10.20;83.80;;;-142.21;100.00;112049.66;5054790;28;20737;-76
2022/11/21 04:39:15;;;;;;;3.97;1.63;;;10.20;83.60;;;-142.21;100.00;112049.66;5058413;28;20484;-78
2022/11/21 04:41:42;;;;;;;2.40;1.43;;;10.30;83.60;;;-142.21;100.00;112049.66;5067928;28;20444;-77
2022/11/21 04:44:09;;;;;;;4.33;1.60;;;10.20;83.40;;;-142.21;100.00;112049.66;5055243;28;20944;-75
2022/11/21 04:46:36;;;;;;;5.03;1.60;;;10.10;83.60;;;-142.21;100.00;112049.66;5074004;28;20807;-78
2022/11/21 04:49:04;;;;;;;1.93;1.30;;;10.10;84.20;;;-142.21;100.00;112049.66;5062793;28;20448;-76
2022/11/21 04:51:31;;;;;;;3.40;1.63;;;10.10;83.90;;;-142.21;100.00;112049.66;5072058;28;20451;-77
2022/11/21 04:53:58;;;;;;;2.90;1.50;;;10.10;83.80;;;-142.21;100.00;112049.66;5038685;28;20939;-77
2022/11/21 04:56:26;;;;;;;5.33;1.70;;;10.20;83.50;;;-142.21;100.00;112049.66;5054464;28;20439;-77
2022/11/21 04:58:54;;;;;;;1.77;1.33;;;10.20;83.30;;;-142.21;100.00;112049.66;5073664;28;20491;-77
2022/11/21 05:01:21;;;;;;;2.57;1.40;;;10.20;83.20;;;-142.21;100.00;112049.66;5073476;28;20501;-76
2022/11/21 05:03:48;;;;;;;4.13;1.83;;;10.20;83.30;;;-142.21;100.00;112049.66;5073565;28;20451;-79
2022/11/21 05:06:16;;;;;;;3.33;1.70;;;10.10;83.50;;;-142.21;100.00;112049.66;5073856;28;20527;-79
2022/11/21 05:08:43;;;;;;;6.83;1.63;;;10.00;83.60;;;-142.21;100.00;112049.66;5073562;28;20440;-79
2022/11/21 05:13:56;;;;;;;2.13;1.37;;;10.00;83.40;;;-142.21;100.00;112049.66;5073529;28;20531;-77
2022/11/21 05:16:23;;;;;;;4.07;1.50;;;10.10;83.60;;;-142.21;100.00;112049.66;5073077;28;20453;-80
2022/11/21 05:18:50;;;;;;;3.67;1.50;;;10.10;84.10;;;-142.21;100.00;112049.66;5060208;28;20480;-79
2022/11/21 05:21:20;;;;;;;3.17;1.50;;;10.20;83.00;;;-142.21;100.00;112049.66;5072597;28;20895;-79
2022/11/21 05:23:47;;;;;;;3.93;1.70;;;10.20;82.60;;;-142.21;100.00;112049.66;5066824;28;20598;-79
2022/11/21 05:26:17;;;;;;;2.70;1.43;;;10.20;83.00;;;-142.21;100.00;112049.66;5053115;28;20519;-79
2022/11/21 05:28:46;;;;;;;2.30;1.60;;;10.20;82.60;;;-142.21;100.00;112049.66;5067976;28;20527;-78
2022/11/21 05:31:15;;;;;;;3.03;1.20;;;10.20;82.60;;;-142.21;100.00;112049.66;5055820;28;20547;-78
2022/11/21 05:33:42;;;;;;;2.40;1.50;;;10.30;82.60;;;-142.21;100.00;112049.66;5067609;28;20539;-78
2022/11/21 05:36:09;;;;;;;2.50;1.37;;;10.30;82.40;;;-142.21;100.00;112049.66;5052981;28;20535;-77
2022/11/21 05:38:36;;;;;;;4.33;1.90;;;10.30;82.20;;;-142.21;100.00;112049.66;5066013;28;20489;-78
2022/11/21 05:41:03;;;;;;;3.03;1.60;;;10.20;81.90;;;-142.21;100.00;112049.66;5054397;28;20452;-78
2022/11/21 05:43:45;;;;;;;1.40;1.30;;;10.10;82.40;;;-142.21;100.00;112049.66;5058022;28;20535;-78
2022/11/21 05:46:16;;;;;;;4.30;1.73;;;10.10;82.50;;;-142.21;100.00;112049.66;5060983;28;20447;-78
2022/11/21 05:48:44;;;;;;;5.73;1.70;;;10.00;83.10;;;-142.21;100.00;112049.66;5059754;28;20443;-79
2022/11/21 05:51:12;;;;;;;3.13;1.50;;;9.90;84.50;;;-142.21;100.00;112049.66;5071353;28;20531;-78
2022/11/21 05:53:39;;;;;;;4.17;1.70;;;9.90;84.60;;;-142.21;100.00;112049.66;5068752;28;20687;-79
2022/11/21 05:56:09;;;;;;;5.03;1.73;;;9.90;84.60;;;-142.21;100.00;112049.66;5064393;28;20450;-79
2022/11/21 05:58:37;;;;;;;4.50;1.60;;;9.90;85.00;;;-142.21;100.00;112049.66;5065610;28;20508;-78
2022/11/21 06:01:05;;;;;;;2.40;1.80;;;9.80;85.20;;;-142.21;100.00;112049.66;5061591;28;20538;-78
2022/11/21 06:03:36;;;;;;;2.00;1.60;;;9.80;85.50;;;-142.21;100.00;112049.66;5068209;28;20451;-77
2022/11/21 06:06:07;;;;;;;2.83;1.60;;;9.80;85.90;;;-142.21;100.00;112049.66;5061633;28;20459;-77
2022/11/21 06:08:36;;;;;;;2.27;2.00;;;9.80;86.00;;;-142.21;100.00;112049.66;5054750;28;20515;-77
2022/11/21 06:11:06;;;;;;;2.50;1.60;;;9.80;86.10;;;-142.21;100.00;112049.66;5072046;28;20538;-77
2022/11/21 06:13:34;;;;;;;4.00;1.80;;;9.90;86.30;;;-142.21;100.00;112049.66;5071146;28;20451;-77
2022/11/21 06:16:04;;;;;;;5.57;2.00;;;9.90;86.20;;;-142.21;100.00;112049.66;5055173;28;20883;-76
2022/11/21 06:18:37;;;;;;;4.43;1.80;;;9.90;86.10;;;-142.21;100.00;112049.66;5065704;28;20471;-78
2022/11/21 06:21:07;;;;;;;6.30;1.97;;;9.90;86.70;;;-142.21;100.00;112049.66;5056495;28;20516;-79
2022/11/21 06:23:35;;;;;;;4.10;1.73;;;9.90;85.60;;;-142.21;100.00;112049.66;5058672;28;20458;-79
2022/11/21 06:26:08;;;;;;;3.90;2.00;;;9.90;85.80;;;-142.21;100.00;112049.66;5053704;28;20529;-80
2022/11/21 06:28:39;;;;;;;3.43;1.60;;;10.00;84.50;;;-142.21;100.00;112049.66;5069298;28;20481;-81
2022/11/21 06:31:07;;;;;;;3.20;1.60;;;10.00;84.30;;;-142.21;100.00;112049.66;5059492;28;20447;-78
2022/11/21 06:33:36;;;;;;;5.53;2.00;;;10.00;84.10;;;-142.21;100.00;112049.66;5061564;28;20613;-78
2022/11/21 06:36:05;;;;;;;3.20;1.83;;;9.90;85.40;;;-142.21;100.00;112049.66;5053262;28;20547;-79
2022/11/21 06:38:32;;;;;;;5.50;2.50;;;9.70;85.70;;;-142.21;100.00;112049.66;5062837;28;20447;-78
2022/11/21 06:41:05;;;;;;;4.53;2.33;;;9.80;85.80;;;-142.21;100.00;112049.66;5055874;28;20944;-76
2022/11/21 06:43:32;;;;;;;4.40;2.47;;;9.80;85.80;;;-142.21;100.00;112049.66;5051747;28;20440;-81
2022/11/21 06:46:02;;;;;;;5.30;2.90;;;9.80;85.30;;;-142.21;100.00;112049.66;5069631;28;20448;-80
2022/11/21 06:48:29;;;;;;;7.67;2.70;;;9.80;85.20;;;-142.21;100.00;112049.66;5066969;28;20479;-79
2022/11/21 06:50:58;;;;;;;2.57;2.10;;;9.70;85.10;;;-142.21;100.00;112049.66;5071883;28;20927;-81
2022/11/21 06:53:25;;;;;;;7.57;2.20;;;9.70;85.30;;;-142.21;100.00;112049.66;5071347;28;20527;-80
2022/11/21 06:55:52;;;;;;;6.27;3.20;;;9.80;85.00;;;-142.21;100.00;112049.66;5071726;28;20483;-80
2022/11/21 06:58:19;;;;;;;7.97;2.77;;;9.70;85.70;;;-142.21;100.00;112049.66;5071776;28;20490;-80
2022/11/21 07:00:47;;;;;;;5.23;2.60;;;9.60;85.10;;;-142.21;100.00;112049.66;5071476;28;20526;-79
2022/11/21 07:03:15;;;;;;;6.53;3.10;;;9.70;84.80;;;-142.21;100.00;112049.66;5071955;28;20479;-80
2022/11/21 07:05:42;;;;;;;9.87;2.23;;;9.70;84.70;;;-142.21;100.00;112049.66;5071038;28;20642;-80
2022/11/21 07:08:10;;;;;;;5.90;2.33;;;9.70;84.10;;;-142.21;100.00;112049.66;5071551;28;20530;-76
2022/11/21 07:10:38;;;;;;;6.43;2.43;;;9.70;84.50;;;-142.21;100.00;112049.66;5070680;28;20966;-76
2022/11/21 07:13:22;;;;;;;6.73;2.50;;;9.80;84.30;;;-142.21;100.00;112049.66;5070562;28;20452;-78
2022/11/21 07:15:54;;;;;;;3.63;2.10;;;9.80;84.10;;;-142.21;100.00;112049.66;5057116;28;20459;-78
2022/11/21 07:18:23;;;;;;;8.80;2.57;;;9.90;83.70;;;-142.21;100.00;112049.66;5067273;28;20535;-77
2022/11/21 07:20:50;;;;;;;2.87;2.03;;;9.90;83.90;;;-142.21;100.00;112049.66;5070337;28;20533;-74
2022/11/21 07:23:19;;;;;;;4.70;2.23;;;10.00;82.50;;;-142.21;100.00;112049.66;5070545;28;20472;-74
2022/11/21 07:25:46;;;;;;;4.07;1.80;;;10.10;82.30;;;-142.21;100.00;112049.66;5070775;28;20432;-71
2022/11/21 07:28:14;;;;;;;7.17;2.27;;;10.10;82.30;;;-142.21;100.00;112049.66;5067723;28;20447;-74
2022/11/21 07:30:41;;;;;;;5.20;2.13;;;10.20;82.00;;;-142.21;100.00;112049.66;5070730;28;20439;-72
2022/11/21 07:33:08;;;;;;;6.20;2.13;;;10.20;81.40;;;-142.21;100.00;112049.66;5070847;28;20541;-72
2022/11/21 07:35:36;;;;;;;6.23;2.67;;;10.20;81.20;;;-142.21;100.00;112049.66;5074342;28;20447;-72
2022/11/21 07:38:04;;;;;;;6.57;2.40;;;10.10;81.10;;;-142.21;100.00;112049.66;5066426;28;20455;-73
2022/11/21 07:40:33;;;;;;;4.47;2.60;;;10.10;81.80;;;-142.21;100.00;112049.66;5070363;28;20490;-73
2022/11/21 07:43:02;;;;;;;5.97;2.83;;;10.20;81.70;;;-142.21;100.00;112049.66;5054452;28;20440;-73
2022/11/21 07:45:30;;;;;;;6.33;2.60;;;10.30;81.40;;;-142.21;100.00;112049.66;5054425;28;20880;-73
2022/11/21 07:48:01;;;;;;;5.33;2.27;;;10.30;81.00;;;-142.21;100.00;112049.66;5067507;28;20467;-73
2022/11/21 07:50:29;;;;;;;6.77;2.33;;;10.20;81.00;;;-142.21;100.00;112049.66;5074375;28;20467;-73
2022/11/21 07:53:00;;;;;;;7.50;2.47;;;10.30;81.10;;;-142.21;100.00;112049.66;5074659;28;20483;-73
2022/11/21 07:55:28;;;;;;;5.17;2.10;;;10.40;80.80;;;-142.21;100.00;112049.66;5073903;28;20524;-73
2022/11/21 07:58:02;;;;;;;5.90;2.53;;;10.50;81.00;;;-142.21;100.00;112049.66;5074550;28;20817;-73
2022/11/21 08:00:31;;;;;;;5.73;3.27;;;10.50;80.20;;;-142.21;100.00;112049.66;5073673;28;20578;-73
2022/11/21 08:02:59;;;;;;;6.17;2.67;;;10.70;79.80;;;-142.21;100.00;112049.66;5074531;28;20958;-73
2022/11/21 08:05:26;;;;;;;4.70;2.80;;;10.70;79.40;;;-142.21;100.00;112049.66;5074214;28;20512;-73
2022/11/21 08:07:53;;;;;;;5.93;2.10;;;10.70;79.00;;;-142.21;100.00;112049.66;5039223;28;20475;-73
2022/11/21 08:10:21;;;;;;;5.80;2.23;;;10.70;78.50;;;-142.21;100.00;112049.66;5074562;28;20878;-72
2022/11/21 08:12:48;;;;;;;4.17;3.10;;;10.70;78.40;;;-142.21;100.00;112049.66;5073971;28;20467;-74
2022/11/21 08:15:17;;;;;;;7.23;3.03;;;10.70;79.00;;;-142.21;100.00;112049.66;5074285;28;20443;-73
2022/11/21 08:17:44;;;;;;;9.60;3.40;;;10.90;78.10;;;-142.21;100.00;112049.66;5074000;28;20856;-73
2022/11/21 08:20:12;;;;;;;7.83;4.13;;;11.00;78.30;;;-142.21;100.00;112049.66;5073836;28;20519;-73
2022/11/21 08:22:40;;;;;;;10.80;5.27;;;11.10;77.70;;;-142.21;100.00;112049.66;5073448;28;20550;-73
2022/11/21 08:25:10;;;;;;;6.03;2.47;;;11.10;77.50;;;-142.21;100.00;112049.66;5074236;28;20486;-73
2022/11/21 08:27:38;;;;;;;5.10;2.50;;;11.30;77.20;;;-142.21;100.00;112049.66;5073315;28;20576;-72
2022/11/21 08:30:08;;;;;;;6.77;2.40;;;11.20;76.40;;;-142.21;100.00;112049.66;5074500;28;20792;-73
2022/11/21 08:32:37;;;;;;;7.93;3.13;;;11.40;76.30;;;-142.21;99.99;112049.66;5073945;28;20486;-73
2022/11/21 08:35:05;;;;;;;6.70;3.40;;;11.40;76.30;;;-142.21;99.66;112049.66;5073733;28;20858;-73
2022/11/21 08:37:32;;;;;;;4.90;2.17;;;11.50;76.00;;;-142.21;100.00;112049.66;5073406;28;20533;-73
2022/11/21 08:39:59;;;;;;;6.83;2.97;;;11.70;75.90;;;-142.21;98.08;112049.66;5073924;28;20986;-73
2022/11/21 08:42:27;;;;;;;8.37;4.37;;;11.90;74.40;;;-142.21;97.19;112049.66;5073924;28;20444;-73
2022/11/21 08:44:54;;;;;;;7.17;3.30;;;12.00;73.80;;;-142.21;96.63;112049.66;5072592;28;20535;-72
2022/11/21 08:47:21;;;;;;;8.07;2.50;;;12.10;73.50;;;-142.21;96.65;112049.66;5073510;28;20449;-72
2022/11/21 08:49:50;;;;;;;4.30;2.77;;;12.10;74.40;;;-142.21;96.38;112049.66;5072671;28;20475;-73
2022/11/21 08:52:17;;;;;;;6.83;2.17;;;12.00;73.40;;;-142.21;97.26;112049.66;5073665;28;20451;-73
2022/11/21 08:54:45;;;;;;;7.77;3.90;;;12.10;73.60;;;-142.21;96.72;112049.66;5072930;28;20509;-73
2022/11/21 08:57:13;;;;;;;4.73;1.97;;;11.90;73.20;;;-142.21;97.09;112049.66;5073585;28;20478;-72
2022/11/21 08:59:40;;;;;;;11.37;6.30;;;11.90;73.70;;;-142.21;97.30;112049.66;5073035;28;20545;-73
2022/11/21 09:02:11;;;;;;;5.60;3.17;;;11.80;73.60;;;-142.21;97.48;112049.66;5073604;28;20459;-73
2022/11/21 09:04:39;;;;;;;10.17;2.80;;;11.80;74.10;;;-142.21;97.19;112049.66;5072571;28;20424;-73
2022/11/21 09:07:07;;;;;;;5.37;3.40;;;11.90;73.90;;;-142.21;97.22;112049.66;5073882;28;20959;-73
2022/11/21 09:09:35;;;;;;;6.03;2.67;;;12.10;73.80;;;-142.21;95.96;112049.66;5073443;28;20443;-73
2022/11/21 09:12:02;;;;;;;5.60;2.17;;;12.20;73.30;;;-142.21;94.40;112049.66;5073569;28;20447;-73
2022/11/21 09:20:13;;;;;;;4.47;1.87;;;11.90;71.90;;;-142.21;94.30;112049.66;5050365;28;20476;-73
2022/11/21 09:22:42;;;;;;;6.10;3.03;;;11.80;72.60;;;-142.21;93.87;112049.66;5067064;28;20499;-73
2022/11/21 09:25:09;;;;;;;3.27;2.73;;;11.80;71.60;;;-142.21;92.59;112049.66;5072688;28;20525;-73
2022/11/21 09:27:37;;;;;;;7.07;3.67;;;11.40;70.90;;;-142.21;92.42;112049.66;5072834;28;20658;-73
2022/11/21 09:30:05;;;;;;;7.10;2.67;;;11.30;72.20;;;-142.21;91.40;112049.66;5073036;28;20845;-73
2022/11/21 09:32:33;;;;;;;3.77;1.63;;;11.30;71.10;;;-142.21;90.68;112049.66;5072386;28;20504;-74
2022/11/21 09:35:00;;;;;;;7.03;3.73;;;11.20;70.90;;;-142.21;91.23;112049.66;5073066;28;20451;-73
2022/11/21 09:37:27;;;;;;;5.50;2.30;;;11.30;71.00;;;-142.21;91.39;112049.66;5073041;28;20447;-73
2022/11/21 09:39:56;;;;;;;6.30;2.10;;;11.30;71.00;;;-142.21;90.71;112049.66;5072177;28;20486;-73
2022/11/21 09:42:57;;;;;;;4.33;2.50;;;11.50;70.70;;;-142.21;90.20;112049.66;5072787;28;20523;-73
2022/11/21 09:45:32;;;;;;;4.90;2.07;;;11.80;70.40;;;-142.21;86.41;112049.66;5072638;28;20493;-73
2022/11/21 09:48:04;;;;;;;4.23;2.00;;;12.10;68.30;;;-142.21;87.54;112049.66;5072374;28;20450;-73
2022/11/21 09:50:37;;;;;;;4.27;2.30;;;12.10;68.50;;;-142.21;88.21;112049.66;5071780;28;20545;-73
2022/11/21 09:53:13;;;;;;;3.43;2.00;;;12.00;68.50;;;-142.21;89.13;112049.66;5072853;28;20824;-73
2022/11/21 09:55:48;;;;;;;5.53;1.93;;;12.00;68.80;;;-142.21;88.84;112049.66;5071180;28;20523;-73
2022/11/21 09:58:26;;;;;;;8.33;2.07;;;11.90;68.40;;;-142.21;91.19;112049.66;5072061;28;20473;-73
2022/11/21 10:00:54;;;;;;;1.93;1.60;;;11.80;69.10;;;-142.21;90.65;112049.66;5037399;28;20494;-73
2022/11/21 10:03:27;;;;;;;4.93;1.57;;;11.80;69.60;;;-142.21;90.81;112049.66;5072662;28;20497;-72
2022/11/21 10:06:01;;;;;;;4.20;1.87;;;11.80;69.10;;;-142.21;91.00;112049.66;5071624;28;20463;-71
2022/11/21 10:08:40;;;;;;;3.60;2.50;;;11.70;69.20;;;-142.21;91.87;112049.66;5072481;28;20459;-73
2022/11/21 10:11:23;;;;;;;5.57;1.97;;;11.70;70.20;;;-142.21;91.88;112049.66;5072544;28;20799;-72